createdAt,value
2018-02-23T00:00:29.106Z,9.00
2018-02-23T00:02:56.567Z,10.40
2018-02-23T00:05:24.054Z,12.23
2018-02-23T00:07:51.527Z,10.40
2018-02-23T00:10:18.989Z,11.50
2018-02-23T00:12:46.456Z,12.60
2018-02-23T00:15:13.923Z,13.00
2018-02-23T00:17:42.155Z,10.80
2018-02-23T00:20:09.625Z,12.67
2018-02-23T00:22:42.153Z,10.07
2018-02-23T00:25:09.665Z,11.00
2018-02-23T00:27:37.120Z,10.03
2018-02-23T00:30:05.382Z,11.33
2018-02-23T00:32:33.136Z,13.33
2018-02-23T00:35:00.629Z,10.20
2018-02-23T00:37:28.092Z,9.77
2018-02-23T00:39:55.541Z,12.07
2018-02-23T00:42:22.999Z,11.00
2018-02-23T00:44:51.223Z,10.60
2018-02-23T00:47:18.691Z,9.30
2018-02-23T00:49:46.149Z,9.63
2018-02-23T00:52:13.613Z,10.10
2018-02-23T00:54:41.067Z,10.10
2018-02-23T00:57:08.537Z,9.57
2018-02-23T00:59:36.009Z,12.57
2018-02-23T01:02:03.461Z,11.40
2018-02-23T01:04:30.921Z,11.87
2018-02-23T01:06:58.378Z,12.33
2018-02-23T01:09:25.903Z,11.83
2018-02-23T01:11:53.375Z,16.33
2018-02-23T01:14:20.844Z,9.87
2018-02-23T01:16:48.285Z,10.93
2018-02-23T01:19:15.741Z,10.30
2018-02-23T01:21:43.194Z,11.50
2018-02-23T01:24:10.655Z,11.17
2018-02-23T01:26:38.126Z,11.43
2018-02-23T01:29:05.578Z,9.20
2018-02-23T01:31:33.056Z,11.00
2018-02-23T01:34:00.511Z,12.60
2018-02-23T01:36:28.727Z,11.70
2018-02-23T01:38:56.186Z,13.00
2018-02-23T01:41:23.642Z,10.27
2018-02-23T01:43:51.099Z,13.93
2018-02-23T01:46:18.573Z,13.27
2018-02-23T01:48:46.865Z,11.50
2018-02-23T01:53:49.076Z,14.80
2018-02-23T01:56:17.291Z,10.90
2018-02-23T01:58:44.747Z,11.07
2018-02-23T02:01:13.011Z,14.73
2018-02-23T02:03:40.488Z,13.13
2018-02-23T02:06:07.939Z,12.70
2018-02-23T02:08:35.394Z,12.87
2018-02-23T02:11:02.842Z,11.17
2018-02-23T02:13:30.298Z,11.57
2018-02-23T02:15:57.763Z,14.23
2018-02-23T02:18:25.213Z,12.07
2018-02-23T02:20:52.674Z,10.60
2018-02-23T02:23:20.135Z,14.27
2018-02-23T02:25:47.627Z,12.60
2018-02-23T02:28:15.102Z,11.77
2018-02-23T02:30:43.329Z,11.53
2018-02-23T02:33:10.790Z,12.00
2018-02-23T02:35:38.249Z,10.23
2018-02-23T02:38:05.706Z,14.33
2018-02-23T02:40:33.168Z,11.57
2018-02-23T02:43:01.441Z,13.60
2018-02-23T02:45:29.610Z,12.47
2018-02-23T02:47:57.074Z,14.70
2018-02-23T02:50:25.097Z,13.20
2018-02-23T02:52:53.317Z,15.90
2018-02-23T02:55:20.790Z,14.63
2018-02-23T02:57:48.257Z,14.77
2018-02-23T03:00:15.748Z,12.50
2018-02-23T03:02:43.206Z,14.50
2018-02-23T03:05:10.688Z,15.23
2018-02-23T03:07:38.143Z,14.20
2018-02-23T03:10:05.617Z,13.43
2018-02-23T03:12:33.075Z,14.93
2018-02-23T03:15:00.533Z,19.03
2018-02-23T03:17:28.013Z,14.27
2018-02-23T03:19:55.492Z,14.87
2018-02-23T03:22:22.951Z,13.27
2018-02-23T03:24:50.417Z,13.50
2018-02-23T03:27:17.909Z,15.67
2018-02-23T03:29:45.380Z,13.57
2018-02-23T03:32:12.840Z,13.90
2018-02-23T03:34:40.317Z,17.70
2018-02-23T03:37:07.786Z,15.80
2018-02-23T03:39:36.001Z,13.40
2018-02-23T03:42:03.469Z,17.87
2018-02-23T03:44:30.951Z,12.67
2018-02-23T03:46:58.421Z,12.47
2018-02-23T03:49:26.653Z,15.37
2018-02-23T03:51:54.130Z,14.63
2018-02-23T03:54:21.586Z,15.97
2018-02-23T03:56:49.058Z,14.90
2018-02-23T03:59:16.602Z,14.70
2018-02-23T04:01:44.068Z,16.50
2018-02-23T04:04:11.580Z,16.80
2018-02-23T04:06:39.059Z,14.10
2018-02-23T04:09:06.592Z,15.73
2018-02-23T04:11:34.058Z,15.83
2018-02-23T04:14:01.536Z,13.80
2018-02-23T04:16:29.757Z,18.37
2018-02-23T04:18:57.978Z,15.40
2018-02-23T04:21:25.488Z,17.33
2018-02-23T04:23:52.951Z,14.80
2018-02-23T04:26:20.431Z,14.07
2018-02-23T04:28:47.899Z,13.27
2018-02-23T04:31:15.358Z,14.60
2018-02-23T04:33:42.813Z,13.80
2018-02-23T04:36:10.274Z,13.20
2018-02-23T04:38:37.726Z,16.23
2018-02-23T04:41:05.193Z,13.40
2018-02-23T04:43:32.648Z,17.23
2018-02-23T04:46:00.105Z,17.57
2018-02-23T04:48:27.567Z,14.30
2018-02-23T04:50:55.053Z,14.40
2018-02-23T04:53:22.522Z,14.17
2018-02-23T04:55:50.750Z,16.60
2018-02-23T04:58:18.218Z,14.83
2018-02-23T05:00:45.686Z,14.53
2018-02-23T05:03:13.146Z,18.20
2018-02-23T05:05:40.617Z,15.43
2018-02-23T05:08:08.846Z,15.50
2018-02-23T05:10:36.302Z,16.57
2018-02-23T05:13:04.555Z,15.73
2018-02-23T05:15:32.010Z,15.40
2018-02-23T05:17:59.493Z,17.97
2018-02-23T05:20:26.969Z,19.57
2018-02-23T05:22:54.441Z,16.37
2018-02-23T05:25:21.944Z,15.30
2018-02-23T05:27:49.413Z,15.93
2018-02-23T05:30:16.885Z,21.07
2018-02-23T05:32:44.346Z,18.33
2018-02-23T05:35:11.814Z,18.03
2018-02-23T05:37:39.282Z,18.47
2018-02-23T05:40:07.530Z,17.70
2018-02-23T05:42:35.008Z,15.97
2018-02-23T05:45:02.471Z,17.73
2018-02-23T05:47:29.936Z,14.77
2018-02-23T05:49:58.174Z,18.20
2018-02-23T05:52:25.639Z,18.90
2018-02-23T05:54:53.132Z,19.13
2018-02-23T05:57:21.848Z,17.57
2018-02-23T05:59:49.310Z,16.60
2018-02-23T06:02:16.767Z,20.07
2018-02-23T06:04:44.231Z,18.30
2018-02-23T06:07:11.696Z,16.93
2018-02-23T06:09:39.157Z,24.30
2018-02-23T06:12:06.634Z,17.30
2018-02-23T06:14:34.100Z,18.57
2018-02-23T06:17:01.579Z,22.53
2018-02-23T06:19:35.569Z,20.53
2018-02-23T06:22:03.805Z,21.13
2018-02-23T06:24:31.278Z,16.80
2018-02-23T06:26:58.739Z,23.33
2018-02-23T06:29:26.198Z,20.90
2018-02-23T06:31:53.676Z,25.87
2018-02-23T06:34:21.919Z,31.83
2018-02-23T06:36:49.390Z,19.27
2018-02-23T06:39:16.880Z,22.57
2018-02-23T06:41:45.127Z,19.77
2018-02-23T06:44:12.585Z,19.97
2018-02-23T06:46:40.062Z,20.43
2018-02-23T06:49:08.285Z,19.23
2018-02-23T06:51:35.749Z,18.73
2018-02-23T06:54:03.213Z,20.93
2018-02-23T06:56:30.670Z,23.33
2018-02-23T06:58:58.141Z,21.73
2018-02-23T07:01:25.603Z,21.10
2018-02-23T07:03:53.061Z,20.13
2018-02-23T07:06:20.594Z,19.27
2018-02-23T07:08:48.078Z,24.67
2018-02-23T07:11:16.417Z,23.43
2018-02-23T07:13:43.866Z,20.90
2018-02-23T07:16:11.350Z,23.63
2018-02-23T07:18:38.870Z,21.20
2018-02-23T07:21:06.333Z,21.60
2018-02-23T07:23:33.802Z,22.37
2018-02-23T07:26:01.269Z,21.53
2018-02-23T07:28:28.736Z,22.03
2018-02-23T07:30:56.265Z,23.23
2018-02-23T07:33:23.763Z,21.90
2018-02-23T07:35:51.225Z,21.70
2018-02-23T07:38:19.459Z,21.97
2018-02-23T07:40:46.930Z,22.70
2018-02-23T07:43:14.406Z,23.30
2018-02-23T07:45:42.162Z,22.30
2018-02-23T07:48:09.622Z,20.60
2018-02-23T07:50:37.085Z,22.37
2018-02-23T07:53:04.554Z,21.93
2018-02-23T07:55:32.778Z,23.30
2018-02-23T07:58:00.246Z,23.80
2018-02-23T08:00:27.716Z,22.30
2018-02-23T08:02:55.185Z,23.20
2018-02-23T08:05:22.649Z,23.83
2018-02-23T08:07:50.123Z,21.00
2018-02-23T08:10:18.355Z,24.60
2018-02-23T08:12:45.843Z,22.10
2018-02-23T08:15:14.074Z,23.43
2018-02-23T08:17:41.546Z,24.53
2018-02-23T08:20:09.018Z,26.83
2018-02-23T08:22:36.482Z,24.50
2018-02-23T08:25:03.946Z,20.43
2018-02-23T08:27:32.174Z,21.70
2018-02-23T08:29:59.649Z,27.40
2018-02-23T08:32:27.133Z,24.23
2018-02-23T08:34:55.370Z,25.43
2018-02-23T08:37:22.833Z,21.23
2018-02-23T08:39:50.313Z,22.93
2018-02-23T08:42:17.774Z,22.03
2018-02-23T08:44:45.242Z,21.97
2018-02-23T08:47:13.471Z,24.47
2018-02-23T08:49:40.942Z,24.80
2018-02-23T08:52:08.417Z,26.37
2018-02-23T08:54:35.889Z,25.10
2018-02-23T08:57:04.118Z,28.13
2018-02-23T08:59:31.588Z,27.83
2018-02-23T09:01:59.062Z,24.13
2018-02-23T09:04:26.532Z,21.50
2018-02-23T09:06:54.754Z,25.23
2018-02-23T09:09:22.217Z,23.90
2018-02-23T09:11:49.690Z,25.93
2018-02-23T09:14:17.154Z,22.70
2018-02-23T09:16:44.609Z,26.77
2018-02-23T09:19:12.070Z,47.43
2018-02-23T09:21:39.526Z,24.17
2018-02-23T09:24:06.994Z,25.33
2018-02-23T09:26:34.514Z,28.10
2018-02-23T09:29:01.965Z,24.83
2018-02-23T09:31:30.256Z,22.50
2018-02-23T09:34:09.614Z,21.90
2018-02-23T09:36:37.809Z,30.57
2018-02-23T09:39:06.050Z,24.83
2018-02-23T09:41:33.503Z,27.07
2018-02-23T09:44:00.985Z,31.27
2018-02-23T09:46:28.445Z,26.57
2018-02-23T09:48:56.674Z,26.90
2018-02-23T09:51:24.139Z,29.47
2018-02-23T09:53:51.614Z,22.63
2018-02-23T09:56:19.067Z,27.37
2018-02-23T09:58:46.533Z,27.17
2018-02-23T10:01:13.994Z,27.70
2018-02-23T10:03:41.449Z,24.67
2018-02-23T10:06:08.910Z,27.77
2018-02-23T10:08:36.366Z,31.27
2018-02-23T10:11:03.842Z,30.10
2018-02-23T10:13:32.066Z,31.27
2018-02-23T10:15:59.546Z,27.37
2018-02-23T10:18:26.998Z,25.87
2018-02-23T10:20:54.457Z,26.63
2018-02-23T10:23:21.916Z,26.73
2018-02-23T10:25:49.395Z,25.53
2018-02-23T10:28:17.617Z,27.87
2018-02-23T10:30:45.089Z,25.20
2018-02-23T10:33:12.540Z,28.17
2018-02-23T10:35:40.002Z,28.43
2018-02-23T10:38:07.462Z,28.10
2018-02-23T10:40:34.952Z,25.87
2018-02-23T10:43:02.372Z,29.60
2018-02-23T10:45:29.856Z,28.90
2018-02-23T10:47:58.074Z,29.60
2018-02-23T10:50:25.535Z,28.67
2018-02-23T10:52:52.989Z,26.23
2018-02-23T10:55:20.465Z,28.40
2018-02-23T10:57:47.926Z,25.87
2018-02-23T11:00:15.407Z,31.13
2018-02-23T11:02:42.864Z,29.00
2018-02-23T11:05:10.328Z,31.03
2018-02-23T11:07:38.545Z,30.10
2018-02-23T11:10:06.010Z,27.80
2018-02-23T11:12:33.504Z,30.33
2018-02-23T11:15:00.926Z,28.47
2018-02-23T11:17:28.393Z,30.10
2018-02-23T11:19:55.865Z,28.40
2018-02-23T11:22:23.329Z,26.47
2018-02-23T11:24:50.789Z,26.40
2018-02-23T11:27:18.249Z,31.70
2018-02-23T11:29:45.713Z,28.13
2018-02-23T11:32:13.933Z,26.80
2018-02-23T11:34:41.398Z,31.73
2018-02-23T11:37:08.850Z,25.97
2018-02-23T11:39:36.306Z,26.67
2018-02-23T11:42:03.767Z,28.53
2018-02-23T11:44:31.222Z,33.47
2018-02-23T11:46:58.678Z,32.17
2018-02-23T11:49:26.134Z,25.00
2018-02-23T11:51:53.598Z,28.90
2018-02-23T11:54:21.059Z,28.83
2018-02-23T11:56:48.536Z,30.33
2018-02-23T11:59:16.007Z,33.70
2018-02-23T12:01:43.470Z,28.07
2018-02-23T12:04:11.694Z,30.20
2018-02-23T12:06:39.153Z,30.57
2018-02-23T12:09:06.610Z,24.80
2018-02-23T12:11:34.069Z,26.90
2018-02-23T12:14:01.519Z,27.47
2018-02-23T12:16:28.982Z,32.30
2018-02-23T12:18:56.442Z,31.17
2018-02-23T12:21:23.930Z,29.93
2018-02-23T12:23:51.370Z,29.57
2018-02-23T12:26:18.829Z,31.90
2018-02-23T12:28:46.302Z,29.30
2018-02-23T12:31:13.770Z,31.97
2018-02-23T12:33:41.985Z,27.90
2018-02-23T12:36:09.447Z,34.40
2018-02-23T12:38:36.897Z,29.47
2018-02-23T12:41:04.370Z,33.30
2018-02-23T12:43:31.826Z,32.87
2018-02-23T12:45:59.288Z,31.20
2018-02-23T12:48:26.737Z,29.90
2018-02-23T12:50:54.203Z,31.80
2018-02-23T12:53:21.678Z,30.47
2018-02-23T12:55:49.141Z,33.23
2018-02-23T12:58:16.598Z,29.63
2018-02-23T13:00:44.054Z,31.87
2018-02-23T13:03:11.504Z,30.00
2018-02-23T13:05:39.020Z,27.67
2018-02-23T13:08:07.198Z,30.93
2018-02-23T13:10:34.653Z,29.47
2018-02-23T13:13:02.117Z,30.33
2018-02-23T13:15:29.583Z,32.97
2018-02-23T13:17:57.038Z,26.43
2018-02-23T13:20:24.484Z,30.87
2018-02-23T13:22:51.950Z,29.53
2018-02-23T13:25:20.190Z,26.80
2018-02-23T13:27:53.249Z,29.40
2018-02-23T13:30:21.481Z,30.77
2018-02-23T13:32:48.940Z,28.83
2018-02-23T13:35:16.393Z,29.20
2018-02-23T13:37:44.620Z,27.80
2018-02-23T13:40:12.866Z,29.13
2018-02-23T13:42:40.331Z,25.97
2018-02-23T13:45:07.785Z,28.80
2018-02-23T13:47:35.271Z,31.00
2018-02-23T13:50:03.516Z,29.10
2018-02-23T13:52:30.981Z,33.03
2018-02-23T13:54:58.451Z,36.53
2018-02-23T13:57:26.672Z,30.83
2018-02-23T13:59:54.125Z,32.50
2018-02-23T14:02:21.609Z,27.50
2018-02-23T14:04:49.081Z,24.50
2018-02-23T14:07:22.154Z,27.73
2018-02-23T14:09:49.627Z,22.47
2018-02-23T14:12:17.089Z,26.37
2018-02-23T14:14:44.554Z,27.43
2018-02-23T14:17:12.773Z,27.97
2018-02-23T14:19:40.236Z,24.60
2018-02-23T14:22:07.713Z,29.23
2018-02-23T14:24:35.166Z,26.03
2018-02-23T14:27:02.636Z,26.50
2018-02-23T14:29:30.089Z,25.90
2018-02-23T14:31:57.557Z,26.77
2018-02-23T14:34:25.014Z,30.63
2018-02-23T14:36:53.561Z,28.87
2018-02-23T14:39:21.020Z,34.00
2018-02-23T14:41:48.490Z,25.73
2018-02-23T14:44:15.948Z,29.30
2018-02-23T14:46:43.413Z,28.37
2018-02-23T14:49:19.593Z,31.43
2018-02-23T14:51:47.822Z,29.43
2018-02-23T14:54:15.275Z,23.47
2018-02-23T14:56:42.745Z,30.70
2018-02-23T14:59:10.194Z,26.97
2018-02-23T15:01:37.650Z,24.20
2018-02-23T15:04:05.121Z,27.50
2018-02-23T15:06:32.583Z,26.63
2018-02-23T15:09:00.034Z,27.00
2018-02-23T15:11:27.489Z,28.43
2018-02-23T15:13:54.955Z,27.30
2018-02-23T15:16:22.410Z,29.87
2018-02-23T15:18:49.874Z,25.50
2018-02-23T15:21:17.325Z,26.60
2018-02-23T15:23:44.789Z,30.90
2018-02-23T15:26:12.246Z,26.37
2018-02-23T15:28:39.717Z,29.80
2018-02-23T15:31:19.669Z,34.27
2018-02-23T15:33:47.898Z,31.50
2018-02-23T15:36:15.379Z,30.00
2018-02-23T15:38:43.546Z,31.80
2018-02-23T15:41:11.005Z,30.90
2018-02-23T15:43:38.463Z,28.90
2018-02-23T15:46:05.919Z,28.80
2018-02-23T15:48:39.134Z,31.27
2018-02-23T15:51:13.062Z,27.03
2018-02-23T15:53:40.522Z,27.87
2018-02-23T15:56:07.978Z,28.87
2018-02-23T15:58:48.258Z,27.77
2018-02-23T16:01:15.717Z,25.70
2018-02-23T16:03:43.206Z,29.03
2018-02-23T16:06:10.661Z,30.90
2018-02-23T16:08:38.130Z,25.53
2018-02-23T16:11:05.593Z,28.33
2018-02-23T16:13:33.819Z,29.27
2018-02-23T16:16:01.274Z,27.00
2018-02-23T16:18:28.735Z,30.13
2018-02-23T16:20:56.190Z,32.70
2018-02-23T16:23:23.685Z,26.60
2018-02-23T16:25:51.146Z,29.13
2018-02-23T16:28:18.618Z,26.43
2018-02-23T16:30:46.846Z,29.00
2018-02-23T16:33:14.310Z,27.50
2018-02-23T16:35:41.776Z,28.27
2018-02-23T16:38:09.240Z,24.77
2018-02-23T16:40:36.693Z,30.57
2018-02-23T16:43:04.157Z,26.60
2018-02-23T16:45:31.613Z,26.37
2018-02-23T16:47:59.089Z,24.90
2018-02-23T16:50:27.314Z,26.50
2018-02-23T16:52:54.779Z,27.03
2018-02-23T16:55:22.239Z,27.40
2018-02-23T16:57:50.455Z,28.50
2018-02-23T17:00:18.728Z,29.13
2018-02-23T17:02:46.147Z,25.47
2018-02-23T17:05:13.606Z,31.37
2018-02-23T17:07:41.066Z,24.17
2018-02-23T17:10:08.527Z,28.87
2018-02-23T17:12:35.983Z,27.00
2018-02-23T17:15:03.446Z,32.17
2018-02-23T17:17:30.914Z,29.87
2018-02-23T17:19:59.155Z,29.77
2018-02-23T17:22:26.614Z,30.53
2018-02-23T17:24:54.087Z,31.33
2018-02-23T17:27:21.542Z,29.70
2018-02-23T17:29:48.999Z,28.60
2018-02-23T17:32:16.460Z,31.60
2018-02-23T17:34:43.966Z,22.07
2018-02-23T17:37:11.373Z,27.47
2018-02-23T17:39:38.830Z,31.43
2018-02-23T17:42:06.291Z,28.07
2018-02-23T17:44:33.770Z,25.40
2018-02-23T17:47:01.993Z,29.97
2018-02-23T17:49:29.454Z,31.27
2018-02-23T17:51:56.905Z,28.10
2018-02-23T17:54:24.371Z,29.30
2018-02-23T17:56:51.822Z,29.93
2018-02-23T17:59:19.286Z,29.70
2018-02-23T18:01:46.738Z,27.97
2018-02-23T18:04:14.207Z,25.50
2018-02-23T18:06:41.657Z,26.87
2018-02-23T18:09:09.125Z,30.87
2018-02-23T18:11:36.580Z,28.67
2018-02-23T18:14:04.046Z,34.87
2018-02-23T18:16:32.278Z,27.20
2018-02-23T18:18:59.780Z,29.90
2018-02-23T18:21:27.206Z,25.90
2018-02-23T18:23:54.665Z,29.93
2018-02-23T18:26:22.122Z,25.70
2018-02-23T18:28:49.598Z,31.33
2018-02-23T18:31:17.042Z,27.10
2018-02-23T18:33:44.503Z,28.23
2018-02-23T18:36:11.974Z,30.43
2018-02-23T18:38:39.429Z,31.47
2018-02-23T18:41:06.892Z,25.00
2018-02-23T18:43:35.113Z,29.70
2018-02-23T18:46:02.573Z,28.17
2018-02-23T18:48:30.025Z,30.60
2018-02-23T18:50:57.485Z,31.43
2018-02-23T18:53:24.946Z,29.70
2018-02-23T18:55:52.417Z,28.23
2018-02-23T18:58:19.874Z,29.90
2018-02-23T19:00:47.336Z,28.53
2018-02-23T19:03:14.791Z,26.43
2018-02-23T19:05:42.249Z,27.43
2018-02-23T19:08:09.707Z,23.20
2018-02-23T19:10:37.178Z,27.27
2018-02-23T19:13:04.633Z,26.57
2018-02-23T19:15:32.096Z,25.87
2018-02-23T19:17:59.546Z,28.20
2018-02-23T19:20:27.006Z,30.80
2018-02-23T19:22:54.464Z,28.07
2018-02-23T19:25:22.699Z,26.53
2018-02-23T19:27:50.173Z,26.93
2018-02-23T19:30:17.634Z,29.67
2018-02-23T19:32:45.091Z,26.40
2018-02-23T19:35:12.550Z,28.50
2018-02-23T19:37:40.986Z,24.97
2018-02-23T19:40:08.454Z,29.93
2018-02-23T19:42:35.916Z,25.40
2018-02-23T19:45:03.388Z,26.70
2018-02-23T19:47:30.875Z,29.73
2018-02-23T19:49:58.330Z,26.53
2018-02-23T19:52:25.833Z,28.77
2018-02-23T19:54:53.296Z,28.03
2018-02-23T19:57:20.774Z,27.83
2018-02-23T19:59:48.231Z,28.50
2018-02-23T20:02:16.507Z,31.93
2018-02-23T20:04:43.932Z,25.60
2018-02-23T20:07:11.402Z,28.07
2018-02-23T20:09:39.876Z,32.67
2018-02-23T20:12:07.356Z,29.57
2018-02-23T20:14:34.811Z,31.20
2018-02-23T20:17:02.279Z,31.03
2018-02-23T20:19:29.726Z,27.80
2018-02-23T20:21:57.186Z,37.40
2018-02-23T20:24:24.642Z,35.47
2018-02-23T20:26:52.118Z,27.50
2018-02-23T20:29:19.573Z,29.50
2018-02-23T20:31:47.037Z,25.10
2018-02-23T20:34:15.262Z,33.00
2018-02-23T20:36:42.721Z,72.57
2018-02-23T20:39:10.184Z,39.30
2018-02-23T20:41:37.650Z,36.70
2018-02-23T20:44:05.133Z,35.37
2018-02-23T20:46:32.585Z,32.20
2018-02-23T20:49:00.042Z,33.00
2018-02-23T20:51:27.536Z,32.87
2018-02-23T20:53:54.957Z,35.73
2018-02-23T20:56:22.418Z,39.27
2018-02-23T20:58:49.874Z,34.70
2018-02-23T21:01:17.346Z,32.73
2018-02-23T21:03:45.562Z,32.33
2018-02-23T21:06:13.063Z,30.50
2018-02-23T21:08:40.525Z,37.30
2018-02-23T21:11:08.757Z,33.93
2018-02-23T21:13:36.236Z,38.63
2018-02-23T21:16:03.701Z,34.90
2018-02-23T21:18:31.155Z,39.90
2018-02-23T21:20:58.629Z,32.10
2018-02-23T21:23:26.858Z,34.63
2018-02-23T21:25:54.324Z,36.47
2018-02-23T21:28:21.801Z,34.87
2018-02-23T21:30:49.270Z,34.83
2018-02-23T21:33:16.733Z,34.70
2018-02-23T21:35:44.961Z,35.20
2018-02-23T21:38:12.429Z,41.60
2018-02-23T21:40:39.897Z,36.23
2018-02-23T21:43:07.359Z,40.43
2018-02-23T21:45:34.842Z,35.10
2018-02-23T21:48:02.302Z,30.13
2018-02-23T21:50:30.524Z,37.17
2018-02-23T21:52:58.754Z,31.37
2018-02-23T21:55:26.984Z,32.40
2018-02-23T21:57:54.449Z,35.10
2018-02-23T22:00:21.909Z,34.23
2018-02-23T22:02:49.378Z,33.90
2018-02-23T22:05:16.837Z,32.90
2018-02-23T22:07:44.303Z,32.57
2018-02-23T22:10:12.539Z,32.17
2018-02-23T22:12:40.008Z,37.40
2018-02-23T22:15:07.461Z,36.63
2018-02-23T22:17:34.926Z,34.77
2018-02-23T22:20:02.400Z,36.90
2018-02-23T22:22:29.870Z,35.73
2018-02-23T22:24:58.114Z,34.07
2018-02-23T22:27:25.584Z,33.77
2018-02-23T22:29:53.041Z,31.63
2018-02-23T22:32:20.513Z,35.43
2018-02-23T22:34:48.745Z,30.67
2018-02-23T22:37:16.207Z,30.40
2018-02-23T22:39:43.681Z,34.60
2018-02-23T22:42:11.151Z,35.70
2018-02-23T22:44:39.370Z,34.83
2018-02-23T22:47:06.839Z,33.13
2018-02-23T22:49:34.292Z,34.90
2018-02-23T22:52:01.761Z,35.73
2018-02-23T22:54:29.555Z,35.10
2018-02-23T22:56:57.013Z,36.33
2018-02-23T22:59:25.238Z,36.50
2018-02-23T23:01:52.702Z,30.60
2018-02-23T23:04:20.190Z,30.00
2018-02-23T23:06:47.674Z,32.07
2018-02-23T23:09:15.898Z,35.50
2018-02-23T23:11:43.358Z,33.87
2018-02-23T23:14:10.813Z,36.73
2018-02-23T23:16:38.285Z,36.70
2018-02-23T23:19:05.743Z,32.67
2018-02-23T23:21:33.209Z,34.47
2018-02-23T23:24:02.667Z,32.43
2018-02-23T23:26:30.122Z,34.03
2018-02-23T23:28:57.585Z,34.00
2018-02-23T23:31:25.056Z,37.33
2018-02-23T23:33:52.530Z,34.27
2018-02-23T23:36:20.000Z,38.63
2018-02-23T23:38:47.476Z,28.67
2018-02-23T23:41:14.916Z,38.00
2018-02-23T23:43:43.145Z,34.83
2018-02-23T23:46:10.619Z,40.60
2018-02-23T23:48:38.090Z,37.17
2018-02-23T23:51:05.542Z,36.97
2018-02-23T23:53:33.021Z,33.23
2018-02-23T23:56:01.259Z,33.43
2018-02-23T23:58:28.721Z,34.30
